Hauptseite
METAR-TAF:

METAR-TAF

Flughäfen :

Flughafen Capitán Aníbal Arab

Cobija, Bolivien

Breite: 11-02S, Länge: 068-47W, Höhe: 235 m

Beobachtung

Neuester Wetterbericht von vor 44 Minuten, um 18:00 UTC
Wind 2 kt aus unterschiedlichen Richtungen
Temperatur 35°C
Luftfeuchtigkeit 47%
Luftdruck 1014 hPa
Sichtweite 10 km oder mehr
Leicht bewölkt in der Höhe von 3700 ft

METAR: SLCO 251800Z VRB02KT 9999 FEW037 35/22 Q1014

Zeit: 14:44 (18:44 UTC)

Prognose

Neuester Wetterbericht von vor 2 Stunden und 44 Minuten, um 16:00 UTC
Gültige Prognose vom 25 um 18 UTC bis 26 um 18 UTC
Wind 10 kt aus Süd/Südwest
Sichtweite: 8000 m
Leicht bewölkt in der Höhe von 3000 ft
Übergehend zu
vom 25 um 23 UTC bis 26 um 01 UTC
Wind kt aus Nord
Übergehend zu
vom 26 um 12 UTC bis 26 um 15 UTC
Wind 10 kt aus Nord/Nordwest

TAF: SLCO 251600Z 2518/2618 21010KT 8000 FEW030 TX36/2519Z TN20/2611Z BECMG 2523/2601 00000KT BECMG 2612/2615 34010KT

Wetterbeobachtungen und Prognosen von mehr als 4000 Flughäfen (METAR und TAF Bericht).

Die verfügbaren Stationen werden durch gelbe und rote Markierungen auf der Karte dargestellt.

Führen Sie die Maus auf sie, um den Namen der Station zu sehen.

Darauf klicken, um die Beobachtung von Wetterbeobachtungen und Prognosen zu sehen.

Um die Karte zu ändern : klicken Sie auf den grünen Tasten mit einem schwarzen Kreuz Zum Vergrößern, auf den grünen Button mit einem Gedankenstrich zu verkleinern, oder auf die grünen Pfeile für benachbarte Karten.


METAR-TAF: